TimeAWST,TemperatureF,Dew PointF,Humidity,Sea Level PressureIn,VisibilityMPH,Wind Direction,Wind SpeedMPH,Gust SpeedMPH,PrecipitationIn,Events,Conditions,WindDirDegrees,DateUTC
12:00 AM,73,65,68,29.79,,NW,3.5,,,,,310,2012-10-07 16:00:00
12:00 AM,73.4,64.4,73,29.80,-9999.0,NW,3.5,-,N/A,,Unknown,310,2012-10-07 16:00:00
1:00 AM,69.8,64.4,83,29.77,-9999.0,West,3.5,-,N/A,,Unknown,270,2012-10-07 17:00:00
2:00 AM,68.0,62.6,83,29.77,-9999.0,Calm,Calm,-,N/A,,Unknown,0,2012-10-07 18:00:00
3:00 AM,67,65,90,29.78,,NE,6.9,,,,,50,2012-10-07 19:00:00
3:00 AM,68.0,64.4,88,29.77,-9999.0,NE,6.9,-,N/A,,Unknown,50,2012-10-07 19:00:00
4:00 AM,68.0,64.4,88,29.77,-9999.0,NE,5.8,-,N/A,,Unknown,50,2012-10-07 20:00:00
5:00 AM,68.0,64.4,88,29.80,-9999.0,NE,5.8,-,N/A,,Unknown,50,2012-10-07 21:00:00
6:00 AM,69,67,91,29.81,,NE,5.8,,,,,40,2012-10-07 22:00:00
6:00 AM,68.0,66.2,94,29.80,-9999.0,NE,5.8,-,N/A,,Unknown,40,2012-10-07 22:00:00
7:00 AM,77.0,71.6,83,29.83,-9999.0,North,5.8,-,N/A,,Unknown,360,2012-10-07 23:00:00
8:00 AM,84.2,69.8,62,29.83,-9999.0,North,5.8,-,N/A,,Unknown,360,2012-10-08 00:00:00
9:00 AM,88,67,41,29.83,,West,6.9,,,,,270,2012-10-08 01:00:00
9:00 AM,87.8,68.0,52,29.83,-9999.0,West,6.9,-,N/A,,Unknown,270,2012-10-08 01:00:00
10:00 AM,93.2,64.4,38,29.80,-9999.0,NNW,4.6,-,N/A,,Unknown,330,2012-10-08 02:00:00
11:00 AM,96.8,62.6,32,29.80,-9999.0,NW,5.8,-,N/A,,Unknown,310,2012-10-08 03:00:00
12:00 PM,102,60,17,29.75,,NE,5.8,,,,,50,2012-10-08 04:00:00
12:00 PM,102.2,60.8,26,29.74,-9999.0,NE,5.8,-,N/A,,Unknown,50,2012-10-08 04:00:00
1:00 PM,105.8,59.0,22,29.71,-9999.0,NNE,10.4,-,N/A,,Unknown,30,2012-10-08 05:00:00
2:00 PM,107.6,60.8,22,29.68,-9999.0,North,10.4,-,N/A,,Unknown,360,2012-10-08 06:00:00
3:00 PM,105,58,13,29.68,,NNW,10.4,,,,,340,2012-10-08 07:00:00
3:00 PM,105.8,57.2,20,29.68,-9999.0,NNW,10.4,-,N/A,,Unknown,340,2012-10-08 07:00:00
4:00 PM,98.6,62.6,30,29.68,-9999.0,NW,10.4,-,N/A,,Unknown,310,2012-10-08 08:00:00
5:00 PM,93.2,66.2,41,29.68,-9999.0,NW,8.1,-,N/A,,Unknown,310,2012-10-08 09:00:00
6:00 PM,87,71,51,29.72,,NW,6.9,,,,,320,2012-10-08 10:00:00
6:00 PM,86.0,71.6,62,29.74,-9999.0,NW,6.9,-,N/A,,Unknown,320,2012-10-08 10:00:00
7:00 PM,84.2,73.4,70,29.77,-9999.0,WNW,4.6,-,N/A,,Unknown,300,2012-10-08 11:00:00
8:00 PM,82.4,73.4,74,29.77,-9999.0,NNW,4.6,-,N/A,,Unknown,340,2012-10-08 12:00:00
9:00 PM,80,73,75,29.79,,North,4.6,,,,,0,2012-10-08 13:00:00
9:00 PM,80.6,73.4,79,29.80,-9999.0,North,4.6,-,N/A,,Unknown,360,2012-10-08 13:00:00
10:00 PM,78.8,73.4,83,29.80,-9999.0,North,5.8,-,N/A,,Unknown,10,2012-10-08 14:00:00
11:00 PM,78.8,73.4,83,29.80,-9999.0,North,5.8,-,N/A,,Unknown,360,2012-10-08 15:00:00